sensor_id;sensor_type;location;lat;lon;timestamp;pressure;altitude;pressure_sealevel;temperature;humidity
74659;BME280;63186;51.204;6.536;2023-05-24T00:02:14;101953.47;;;7.18;77.61
74659;BME280;63186;51.204;6.536;2023-05-24T00:04:40;101953.91;;;7.10;79.29
74659;BME280;63186;51.204;6.536;2023-05-24T00:07:06;101953.28;;;7.03;78.41
74659;BME280;63186;51.204;6.536;2023-05-24T00:09:31;101958.47;;;6.99;78.32
74659;BME280;63186;51.204;6.536;2023-05-24T00:11:57;101959.22;;;6.95;78.72
74659;BME280;63186;51.204;6.536;2023-05-24T00:14:22;101953.19;;;6.93;80.17
74659;BME280;63186;51.204;6.536;2023-05-24T00:16:47;101960.59;;;6.92;79.17
74659;BME280;63186;51.204;6.536;2023-05-24T00:19:13;101953.69;;;6.90;79.63
74659;BME280;63186;51.204;6.536;2023-05-24T00:21:45;101960.25;;;6.89;78.89
74659;BME280;63186;51.204;6.536;2023-05-24T00:24:11;101955.59;;;6.89;79.92
74659;BME280;63186;51.204;6.536;2023-05-24T00:26:36;101943.28;;;6.87;79.72
74659;BME280;63186;51.204;6.536;2023-05-24T00:29:02;101959.63;;;6.82;80.68
74659;BME280;63186;51.204;6.536;2023-05-24T00:31:27;101950.53;;;6.76;80.39
74659;BME280;63186;51.204;6.536;2023-05-24T00:33:52;101952.97;;;6.72;81.12
74659;BME280;63186;51.204;6.536;2023-05-24T00:36:17;101947.63;;;6.61;81.00
74659;BME280;63186;51.204;6.536;2023-05-24T00:38:43;101944.56;;;6.57;81.81
74659;BME280;63186;51.204;6.536;2023-05-24T00:41:08;101941.00;;;6.57;82.02
74659;BME280;63186;51.204;6.536;2023-05-24T00:43:35;101936.88;;;6.54;81.84
74659;BME280;63186;51.204;6.536;2023-05-24T00:46:20;101945.00;;;6.49;83.78
74659;BME280;63186;51.204;6.536;2023-05-24T00:48:48;101944.38;;;6.42;83.13
74659;BME280;63186;51.204;6.536;2023-05-24T00:51:15;101939.66;;;6.37;83.34
74659;BME280;63186;51.204;6.536;2023-05-24T00:53:43;101945.91;;;6.33;83.03
74659;BME280;63186;51.204;6.536;2023-05-24T00:56:10;101940.88;;;6.24;83.49
74659;BME280;63186;51.204;6.536;2023-05-24T00:58:36;101940.28;;;6.22;84.33
74659;BME280;63186;51.204;6.536;2023-05-24T01:01:02;101934.84;;;6.22;83.71
74659;BME280;63186;51.204;6.536;2023-05-24T01:03:28;101943.13;;;6.11;83.41
74659;BME280;63186;51.204;6.536;2023-05-24T01:06:01;101939.50;;;6.05;84.34
74659;BME280;63186;51.204;6.536;2023-05-24T01:09:05;101939.50;;;6.05;86.69
74659;BME280;63186;51.204;6.536;2023-05-24T01:12:02;101930.09;;;5.96;85.72
74659;BME280;63186;51.204;6.536;2023-05-24T01:14:34;101942.38;;;5.93;86.69
74659;BME280;63186;51.204;6.536;2023-05-24T01:17:20;101930.97;;;5.85;86.74
74659;BME280;63186;51.204;6.536;2023-05-24T01:19:55;101930.97;;;5.85;86.65
74659;BME280;63186;51.204;6.536;2023-05-24T01:23:03;101925.78;;;5.83;87.74
74659;BME280;63186;51.204;6.536;2023-05-24T01:28:17;101941.16;;;5.72;89.50
74659;BME280;63186;51.204;6.536;2023-05-24T01:30:43;101923.22;;;5.60;87.75
74659;BME280;63186;51.204;6.536;2023-05-24T01:33:09;101931.09;;;5.56;86.90
74659;BME280;63186;51.204;6.536;2023-05-24T01:35:35;101935.22;;;5.59;87.35
74659;BME280;63186;51.204;6.536;2023-05-24T01:38:05;101925.72;;;5.44;86.24
74659;BME280;63186;51.204;6.536;2023-05-24T01:40:32;101924.81;;;5.22;86.69
74659;BME280;63186;51.204;6.536;2023-05-24T01:43:04;101928.16;;;5.12;86.73
74659;BME280;63186;51.204;6.536;2023-05-24T01:45:38;101918.38;;;5.00;88.15
74659;BME280;63186;51.204;6.536;2023-05-24T01:48:13;101921.84;;;4.95;89.52
74659;BME280;63186;51.204;6.536;2023-05-24T01:50:56;101912.75;;;4.89;90.19
74659;BME280;63186;51.204;6.536;2023-05-24T01:53:23;101913.09;;;4.93;89.08
74659;BME280;63186;51.204;6.536;2023-05-24T01:55:53;101913.75;;;5.00;89.14
74659;BME280;63186;51.204;6.536;2023-05-24T01:58:20;101917.91;;;5.03;88.07
74659;BME280;63186;51.204;6.536;2023-05-24T02:00:47;101914.16;;;4.92;87.61
74659;BME280;63186;51.204;6.536;2023-05-24T02:03:13;101905.19;;;4.80;87.45
74659;BME280;63186;51.204;6.536;2023-05-24T02:05:40;101911.06;;;4.72;87.73
74659;BME280;63186;51.204;6.536;2023-05-24T02:08:05;101903.25;;;4.63;88.07
74659;BME280;63186;51.204;6.536;2023-05-24T02:10:30;101906.81;;;4.64;89.15
74659;BME280;63186;51.204;6.536;2023-05-24T02:12:56;101905.91;;;4.75;89.93
74659;BME280;63186;51.204;6.536;2023-05-24T02:15:23;101910.19;;;4.83;89.54
74659;BME280;63186;51.204;6.536;2023-05-24T02:17:49;101906.38;;;4.84;91.57
74659;BME280;63186;51.204;6.536;2023-05-24T02:20:14;101906.69;;;4.87;91.62
74659;BME280;63186;51.204;6.536;2023-05-24T02:22:41;101909.00;;;4.79;89.63
74659;BME280;63186;51.204;6.536;2023-05-24T02:25:06;101910.53;;;4.58;90.69
74659;BME280;63186;51.204;6.536;2023-05-24T02:27:32;101910.66;;;4.51;91.48
74659;BME280;63186;51.204;6.536;2023-05-24T02:29:57;101906.59;;;4.54;93.56
74659;BME280;63186;51.204;6.536;2023-05-24T02:32:23;101900.19;;;4.60;92.55
74659;BME280;63186;51.204;6.536;2023-05-24T02:34:48;101890.34;;;4.59;91.81
74659;BME280;63186;51.204;6.536;2023-05-24T02:37:13;101890.19;;;4.66;92.38
74659;BME280;63186;51.204;6.536;2023-05-24T02:39:40;101896.59;;;4.71;92.97
74659;BME280;63186;51.204;6.536;2023-05-24T02:42:06;101903.94;;;4.71;92.25
74659;BME280;63186;51.204;6.536;2023-05-24T02:44:32;101896.06;;;4.57;92.01
74659;BME280;63186;51.204;6.536;2023-05-24T02:46:58;101898.94;;;4.51;92.43
74659;BME280;63186;51.204;6.536;2023-05-24T02:49:23;101905.09;;;4.46;93.64
74659;BME280;63186;51.204;6.536;2023-05-24T02:51:48;101906.28;;;4.50;93.09
74659;BME280;63186;51.204;6.536;2023-05-24T02:54:13;101901.16;;;4.54;93.49
74659;BME280;63186;51.204;6.536;2023-05-24T02:56:39;101900.06;;;4.55;93.45
74659;BME280;63186;51.204;6.536;2023-05-24T02:59:04;101904.59;;;4.49;92.53
74659;BME280;63186;51.204;6.536;2023-05-24T03:01:30;101902.38;;;4.46;94.07
74659;BME280;63186;51.204;6.536;2023-05-24T03:03:57;101897.16;;;4.45;93.65
74659;BME280;63186;51.204;6.536;2023-05-24T03:06:23;101909.47;;;4.47;94.42
74659;BME280;63186;51.204;6.536;2023-05-24T03:08:48;101902.13;;;4.48;94.31
74659;BME280;63186;51.204;6.536;2023-05-24T03:11:13;101900.97;;;4.44;93.54
74659;BME280;63186;51.204;6.536;2023-05-24T03:13:39;101900.97;;;4.44;94.11
74659;BME280;63186;51.204;6.536;2023-05-24T03:16:05;101895.88;;;4.35;92.86
74659;BME280;63186;51.204;6.536;2023-05-24T03:18:30;101900.31;;;4.25;93.24
74659;BME280;63186;51.204;6.536;2023-05-24T03:20:55;101902.53;;;4.28;93.92
74659;BME280;63186;51.204;6.536;2023-05-24T03:23:21;101899.22;;;4.26;92.89
74659;BME280;63186;51.204;6.536;2023-05-24T03:25:46;101895.22;;;4.17;92.36
74659;BME280;63186;51.204;6.536;2023-05-24T03:28:11;101893.81;;;4.14;93.05
74659;BME280;63186;51.204;6.536;2023-05-24T03:30:38;101893.56;;;4.16;92.88
74659;BME280;63186;51.204;6.536;2023-05-24T03:33:04;101901.16;;;4.14;92.88
74659;BME280;63186;51.204;6.536;2023-05-24T03:35:29;101894.50;;;4.09;92.90
74659;BME280;63186;51.204;6.536;2023-05-24T03:37:54;101894.75;;;4.20;93.86
74659;BME280;63186;51.204;6.536;2023-05-24T03:40:20;101901.47;;;4.29;94.44
74659;BME280;63186;51.204;6.536;2023-05-24T03:42:45;101913.31;;;4.34;93.42
74659;BME280;63186;51.204;6.536;2023-05-24T03:45:10;101906.31;;;4.39;94.65
74659;BME280;63186;51.204;6.536;2023-05-24T03:47:35;101912.19;;;4.47;95.08
74659;BME280;63186;51.204;6.536;2023-05-24T03:50:01;101906.84;;;4.52;94.81
74659;BME280;63186;51.204;6.536;2023-05-24T03:52:26;101914.31;;;4.57;94.08
74659;BME280;63186;51.204;6.536;2023-05-24T03:54:51;101910.84;;;4.61;93.51
74659;BME280;63186;51.204;6.536;2023-05-24T03:57:17;101910.47;;;4.70;93.62
74659;BME280;63186;51.204;6.536;2023-05-24T03:59:42;101906.84;;;4.81;93.88
74659;BME280;63186;51.204;6.536;2023-05-24T04:02:07;101920.44;;;4.93;94.01
74659;BME280;63186;51.204;6.536;2023-05-24T04:04:33;101920.13;;;5.06;93.60
74659;BME280;63186;51.204;6.536;2023-05-24T04:06:58;101928.59;;;5.21;92.66
74659;BME280;63186;51.204;6.536;2023-05-24T04:09:24;101920.66;;;5.36;91.90
74659;BME280;63186;51.204;6.536;2023-05-24T04:11:49;101923.91;;;5.50;91.69
74659;BME280;63186;51.204;6.536;2023-05-24T04:14:15;101924.13;;;5.65;91.31
74659;BME280;63186;51.204;6.536;2023-05-24T04:16:40;101924.03;;;5.77;90.70
74659;BME280;63186;51.204;6.536;2023-05-24T04:19:06;101922.63;;;5.91;89.74
74659;BME280;63186;51.204;6.536;2023-05-24T04:21:32;101929.25;;;6.34;89.34
74659;BME280;63186;51.204;6.536;2023-05-24T04:23:58;101918.56;;;7.08;86.91
74659;BME280;63186;51.204;6.536;2023-05-24T04:26:25;101916.97;;;7.77;83.89
74659;BME280;63186;51.204;6.536;2023-05-24T04:28:51;101922.16;;;8.26;81.02
74659;BME280;63186;51.204;6.536;2023-05-24T04:31:17;101924.84;;;8.68;79.47
74659;BME280;63186;51.204;6.536;2023-05-24T04:33:42;101922.72;;;9.06;77.91
74659;BME280;63186;51.204;6.536;2023-05-24T04:36:07;101920.84;;;9.37;76.61
74659;BME280;63186;51.204;6.536;2023-05-24T04:38:35;101924.41;;;9.73;75.34
74659;BME280;63186;51.204;6.536;2023-05-24T04:41:03;101917.47;;;10.01;74.72
74659;BME280;63186;51.204;6.536;2023-05-24T04:43:28;101917.66;;;10.30;73.66
74659;BME280;63186;51.204;6.536;2023-05-24T04:45:54;101922.38;;;10.89;72.26
74659;BME280;63186;51.204;6.536;2023-05-24T04:48:23;101920.19;;;11.25;70.48
74659;BME280;63186;51.204;6.536;2023-05-24T04:50:56;101927.66;;;10.75;71.69
74659;BME280;63186;51.204;6.536;2023-05-24T04:53:22;101939.97;;;10.33;72.88
74659;BME280;63186;51.204;6.536;2023-05-24T04:55:48;101936.78;;;9.65;75.31
74659;BME280;63186;51.204;6.536;2023-05-24T04:58:14;101949.41;;;9.20;77.26
74659;BME280;63186;51.204;6.536;2023-05-24T05:00:40;101943.03;;;8.94;78.76
74659;BME280;63186;51.204;6.536;2023-05-24T05:03:05;101931.44;;;8.77;80.03
74659;BME280;63186;51.204;6.536;2023-05-24T05:05:31;101938.28;;;8.64;80.71
74659;BME280;63186;51.204;6.536;2023-05-24T05:07:56;101944.56;;;8.55;81.52
74659;BME280;63186;51.204;6.536;2023-05-24T05:10:22;101946.47;;;8.59;82.34
74659;BME280;63186;51.204;6.536;2023-05-24T05:12:47;101950.97;;;8.86;81.88
74659;BME280;63186;51.204;6.536;2023-05-24T05:15:13;101960.38;;;9.10;81.05
74659;BME280;63186;51.204;6.536;2023-05-24T05:17:38;101958.44;;;9.06;80.94
74659;BME280;63186;51.204;6.536;2023-05-24T05:20:04;101966.09;;;8.98;80.90
74659;BME280;63186;51.204;6.536;2023-05-24T05:22:30;101957.03;;;8.88;80.76
74659;BME280;63186;51.204;6.536;2023-05-24T05:24:55;101961.94;;;8.76;81.71
74659;BME280;63186;51.204;6.536;2023-05-24T05:27:20;101970.16;;;8.70;82.27
74659;BME280;63186;51.204;6.536;2023-05-24T05:29:46;101973.44;;;8.73;82.28
74659;BME280;63186;51.204;6.536;2023-05-24T05:32:11;101974.84;;;8.85;81.72
74659;BME280;63186;51.204;6.536;2023-05-24T05:34:36;101974.59;;;8.87;81.21
74659;BME280;63186;51.204;6.536;2023-05-24T05:37:01;101976.59;;;9.07;80.67
74659;BME280;63186;51.204;6.536;2023-05-24T05:39:27;101976.59;;;9.07;80.56
74659;BME280;63186;51.204;6.536;2023-05-24T05:41:52;101971.34;;;9.10;81.40
74659;BME280;63186;51.204;6.536;2023-05-24T05:44:17;101981.00;;;9.28;80.53
74659;BME280;63186;51.204;6.536;2023-05-24T05:46:43;101971.66;;;9.29;79.83
74659;BME280;63186;51.204;6.536;2023-05-24T05:49:12;101972.25;;;9.46;79.38
74659;BME280;63186;51.204;6.536;2023-05-24T05:51:39;101970.06;;;9.59;79.12
74659;BME280;63186;51.204;6.536;2023-05-24T05:54:04;101973.59;;;9.64;79.04
74659;BME280;63186;51.204;6.536;2023-05-24T05:56:30;101972.50;;;9.81;78.06
74659;BME280;63186;51.204;6.536;2023-05-24T05:58:55;101976.34;;;9.95;77.17
74659;BME280;63186;51.204;6.536;2023-05-24T06:01:20;101974.94;;;10.23;77.53
74659;BME280;63186;51.204;6.536;2023-05-24T06:03:46;101970.06;;;10.79;75.12
74659;BME280;63186;51.204;6.536;2023-05-24T06:06:11;101965.75;;;11.12;73.63
74659;BME280;63186;51.204;6.536;2023-05-24T06:08:36;101957.25;;;11.48;73.35
74659;BME280;63186;51.204;6.536;2023-05-24T06:11:02;101967.47;;;11.77;72.23
74659;BME280;63186;51.204;6.536;2023-05-24T06:13:28;101955.19;;;12.22;71.03
74659;BME280;63186;51.204;6.536;2023-05-24T06:15:55;101961.47;;;13.70;66.53
74659;BME280;63186;51.204;6.536;2023-05-24T06:18:20;101958.38;;;13.71;64.64
74659;BME280;63186;51.204;6.536;2023-05-24T06:20:46;101961.34;;;13.42;64.41
74659;BME280;63186;51.204;6.536;2023-05-24T06:23:11;101958.44;;;13.34;66.75
74659;BME280;63186;51.204;6.536;2023-05-24T06:25:37;101957.00;;;14.48;63.52
74659;BME280;63186;51.204;6.536;2023-05-24T06:28:03;101956.84;;;15.53;61.83
74659;BME280;63186;51.204;6.536;2023-05-24T06:30:28;101960.00;;;15.60;60.21
74659;BME280;63186;51.204;6.536;2023-05-24T06:32:53;101958.78;;;15.97;59.14
74659;BME280;63186;51.204;6.536;2023-05-24T06:35:19;101957.00;;;16.01;57.90
74659;BME280;63186;51.204;6.536;2023-05-24T06:37:44;101965.81;;;16.25;57.82
74659;BME280;63186;51.204;6.536;2023-05-24T06:40:10;101959.66;;;16.94;57.68
74659;BME280;63186;51.204;6.536;2023-05-24T06:42:35;101967.91;;;16.68;57.18
74659;BME280;63186;51.204;6.536;2023-05-24T06:45:01;101989.13;;;15.26;60.93
74659;BME280;63186;51.204;6.536;2023-05-24T06:47:27;101988.44;;;13.78;64.34
74659;BME280;63186;51.204;6.536;2023-05-24T06:49:52;101982.72;;;13.18;66.14
74659;BME280;63186;51.204;6.536;2023-05-24T06:52:17;101975.69;;;13.07;68.17
74659;BME280;63186;51.204;6.536;2023-05-24T06:54:43;101984.34;;;13.19;66.18
74659;BME280;63186;51.204;6.536;2023-05-24T06:57:08;101981.34;;;12.96;66.85
74659;BME280;63186;51.204;6.536;2023-05-24T06:59:33;101981.22;;;13.07;67.17
74659;BME280;63186;51.204;6.536;2023-05-24T07:01:59;101986.34;;;14.02;64.86
74659;BME280;63186;51.204;6.536;2023-05-24T07:04:24;101987.50;;;15.11;62.02
74659;BME280;63186;51.204;6.536;2023-05-24T07:06:50;101982.59;;;15.08;60.57
74659;BME280;63186;51.204;6.536;2023-05-24T07:09:16;101982.72;;;15.62;59.47
74659;BME280;63186;51.204;6.536;2023-05-24T07:11:42;101975.97;;;16.78;55.48
74659;BME280;63186;51.204;6.536;2023-05-24T07:14:07;101983.91;;;17.63;54.17
74659;BME280;63186;51.204;6.536;2023-05-24T07:16:32;101983.84;;;16.85;56.15
74659;BME280;63186;51.204;6.536;2023-05-24T07:18:57;101976.88;;;17.31;53.53
74659;BME280;63186;51.204;6.536;2023-05-24T07:21:23;101990.44;;;17.58;53.67
74659;BME280;63186;51.204;6.536;2023-05-24T07:23:51;101983.75;;;17.25;54.53
74659;BME280;63186;51.204;6.536;2023-05-24T07:26:16;101989.19;;;16.33;57.92
74659;BME280;63186;51.204;6.536;2023-05-24T07:28:42;101988.34;;;17.55;56.45
74659;BME280;63186;51.204;6.536;2023-05-24T07:31:08;101983.66;;;18.58;53.19
74659;BME280;63186;51.204;6.536;2023-05-24T07:33:35;101991.78;;;17.87;51.90
74659;BME280;63186;51.204;6.536;2023-05-24T07:36:01;101996.19;;;17.19;56.89
74659;BME280;63186;51.204;6.536;2023-05-24T07:38:26;101991.28;;;18.40;53.33
74659;BME280;63186;51.204;6.536;2023-05-24T07:40:53;101999.25;;;19.18;50.31
74659;BME280;63186;51.204;6.536;2023-05-24T07:43:18;101995.28;;;19.61;46.76
74659;BME280;63186;51.204;6.536;2023-05-24T07:45:44;101996.72;;;18.75;50.41
74659;BME280;63186;51.204;6.536;2023-05-24T07:48:09;101985.38;;;17.52;53.31
74659;BME280;63186;51.204;6.536;2023-05-24T07:50:35;101988.13;;;17.00;54.72
74659;BME280;63186;51.204;6.536;2023-05-24T07:53:01;101987.94;;;16.79;56.39
74659;BME280;63186;51.204;6.536;2023-05-24T07:55:26;101986.25;;;15.76;57.59
74659;BME280;63186;51.204;6.536;2023-05-24T07:57:52;101984.69;;;14.75;60.90
74659;BME280;63186;51.204;6.536;2023-05-24T08:00:17;101988.41;;;13.97;62.56
74659;BME280;63186;51.204;6.536;2023-05-24T08:02:44;101983.38;;;13.99;62.94
74659;BME280;63186;51.204;6.536;2023-05-24T08:05:13;101981.03;;;14.20;62.93
74659;BME280;63186;51.204;6.536;2023-05-24T08:07:39;101979.84;;;14.53;61.77
74659;BME280;63186;51.204;6.536;2023-05-24T08:10:06;101985.16;;;14.91;60.19
74659;BME280;63186;51.204;6.536;2023-05-24T08:12:32;101987.66;;;15.51;58.16
74659;BME280;63186;51.204;6.536;2023-05-24T08:14:57;101980.59;;;15.81;57.53
74659;BME280;63186;51.204;6.536;2023-05-24T08:17:22;101971.38;;;16.74;54.51
74659;BME280;63186;51.204;6.536;2023-05-24T08:19:48;101974.53;;;18.02;51.69
74659;BME280;63186;51.204;6.536;2023-05-24T08:22:13;101976.31;;;18.07;51.75
74659;BME280;63186;51.204;6.536;2023-05-24T08:24:38;101977.03;;;17.26;53.54
74659;BME280;63186;51.204;6.536;2023-05-24T08:27:04;101973.88;;;16.93;53.93
74659;BME280;63186;51.204;6.536;2023-05-24T08:29:29;101970.97;;;17.76;53.00
74659;BME280;63186;51.204;6.536;2023-05-24T08:31:55;101980.97;;;17.68;52.71
74659;BME280;63186;51.204;6.536;2023-05-24T08:34:20;101986.31;;;16.47;55.21
74659;BME280;63186;51.204;6.536;2023-05-24T08:36:45;101987.41;;;15.75;57.72
74659;BME280;63186;51.204;6.536;2023-05-24T08:39:11;101989.59;;;14.78;60.08
74659;BME280;63186;51.204;6.536;2023-05-24T08:41:36;101987.63;;;14.37;61.37
74659;BME280;63186;51.204;6.536;2023-05-24T08:44:05;101984.00;;;13.96;62.88
74659;BME280;63186;51.204;6.536;2023-05-24T08:46:33;101985.31;;;13.66;63.13
74659;BME280;63186;51.204;6.536;2023-05-24T08:48:59;101982.25;;;13.48;63.35
74659;BME280;63186;51.204;6.536;2023-05-24T08:51:24;101986.91;;;13.53;63.15
74659;BME280;63186;51.204;6.536;2023-05-24T08:53:51;101983.13;;;13.63;63.12
74659;BME280;63186;51.204;6.536;2023-05-24T08:56:18;101973.78;;;13.77;62.68
74659;BME280;63186;51.204;6.536;2023-05-24T08:58:44;101978.16;;;14.11;61.47
74659;BME280;63186;51.204;6.536;2023-05-24T09:01:12;101970.91;;;14.29;60.38
74659;BME280;63186;51.204;6.536;2023-05-24T09:03:39;101973.63;;;14.48;59.63
74659;BME280;63186;51.204;6.536;2023-05-24T09:06:06;101968.75;;;14.95;58.38
74659;BME280;63186;51.204;6.536;2023-05-24T09:08:32;101967.69;;;15.04;58.08
74659;BME280;63186;51.204;6.536;2023-05-24T09:11:01;101959.97;;;14.51;59.33
74659;BME280;63186;51.204;6.536;2023-05-24T09:13:27;101964.69;;;14.51;58.66
74659;BME280;63186;51.204;6.536;2023-05-24T09:15:52;101962.88;;;14.27;59.88
74659;BME280;63186;51.204;6.536;2023-05-24T09:18:18;101961.63;;;14.06;60.67
74659;BME280;63186;51.204;6.536;2023-05-24T09:20:43;101959.06;;;13.96;60.67
74659;BME280;63186;51.204;6.536;2023-05-24T09:23:09;101953.53;;;13.96;60.85
74659;BME280;63186;51.204;6.536;2023-05-24T09:25:35;101967.50;;;14.04;59.66
74659;BME280;63186;51.204;6.536;2023-05-24T09:28:05;101961.59;;;13.78;59.91
74659;BME280;63186;51.204;6.536;2023-05-24T09:30:31;101968.66;;;13.84;59.96
74659;BME280;63186;51.204;6.536;2023-05-24T09:32:58;101958.69;;;14.02;59.08
74659;BME280;63186;51.204;6.536;2023-05-24T09:35:25;101957.56;;;14.17;58.61
74659;BME280;63186;51.204;6.536;2023-05-24T09:37:53;101962.19;;;14.35;58.79
74659;BME280;63186;51.204;6.536;2023-05-24T09:40:20;101965.00;;;14.49;58.40
74659;BME280;63186;51.204;6.536;2023-05-24T09:42:46;101966.69;;;14.31;57.70
74659;BME280;63186;51.204;6.536;2023-05-24T09:45:15;101961.34;;;14.21;59.37
74659;BME280;63186;51.204;6.536;2023-05-24T09:47:42;101956.59;;;13.94;60.26
74659;BME280;63186;51.204;6.536;2023-05-24T09:50:13;101958.31;;;13.76;60.39
74659;BME280;63186;51.204;6.536;2023-05-24T09:52:39;101959.91;;;13.64;61.56
74659;BME280;63186;51.204;6.536;2023-05-24T09:55:15;101960.53;;;13.74;60.93
74659;BME280;63186;51.204;6.536;2023-05-24T09:57:42;101964.75;;;13.72;61.27
74659;BME280;63186;51.204;6.536;2023-05-24T10:00:08;101953.00;;;13.94;60.77
74659;BME280;63186;51.204;6.536;2023-05-24T10:02:42;101962.53;;;14.01;60.59
74659;BME280;63186;51.204;6.536;2023-05-24T10:05:09;101964.81;;;14.13;60.41
74659;BME280;63186;51.204;6.536;2023-05-24T10:07:36;101957.34;;;14.13;59.80
74659;BME280;63186;51.204;6.536;2023-05-24T10:10:03;101958.56;;;14.07;59.81
74659;BME280;63186;51.204;6.536;2023-05-24T10:12:29;101956.13;;;14.33;59.13
74659;BME280;63186;51.204;6.536;2023-05-24T10:14:55;101961.59;;;14.52;59.40
74659;BME280;63186;51.204;6.536;2023-05-24T10:17:22;101959.75;;;14.75;59.25
74659;BME280;63186;51.204;6.536;2023-05-24T10:19:48;101957.63;;;15.08;58.21
74659;BME280;63186;51.204;6.536;2023-05-24T10:22:14;101964.75;;;15.23;58.06
74659;BME280;63186;51.204;6.536;2023-05-24T10:24:45;101964.34;;;15.97;55.54
74659;BME280;63186;51.204;6.536;2023-05-24T10:27:22;101946.00;;;16.67;53.40
74659;BME280;63186;51.204;6.536;2023-05-24T10:30:16;101953.94;;;17.34;50.70
74659;BME280;63186;51.204;6.536;2023-05-24T10:32:47;101944.25;;;17.66;51.08
74659;BME280;63186;51.204;6.536;2023-05-24T10:35:14;101942.25;;;18.01;51.95
74659;BME280;63186;51.204;6.536;2023-05-24T10:37:40;101937.91;;;17.74;52.27
74659;BME280;63186;51.204;6.536;2023-05-24T10:40:07;101938.88;;;17.18;51.20
74659;BME280;63186;51.204;6.536;2023-05-24T10:42:42;101928.34;;;16.63;53.66
74659;BME280;63186;51.204;6.536;2023-05-24T10:47:51;101940.91;;;16.12;55.67
74659;BME280;63186;51.204;6.536;2023-05-24T10:50:19;101929.56;;;16.39;55.03
74659;BME280;63186;51.204;6.536;2023-05-24T10:52:47;101934.34;;;16.56;53.95
74659;BME280;63186;51.204;6.536;2023-05-24T10:55:12;101937.53;;;16.72;53.63
74659;BME280;63186;51.204;6.536;2023-05-24T10:57:38;101934.44;;;16.34;52.82
74659;BME280;63186;51.204;6.536;2023-05-24T11:03:15;101936.63;;;16.54;51.18
74659;BME280;63186;51.204;6.536;2023-05-24T11:08:28;101926.44;;;16.32;50.46
74659;BME280;63186;51.204;6.536;2023-05-24T11:13:32;101920.41;;;16.39;53.33
74659;BME280;63186;51.204;6.536;2023-05-24T11:15:57;101915.47;;;17.01;50.46
74659;BME280;63186;51.204;6.536;2023-05-24T11:18:23;101920.88;;;17.32;49.08
74659;BME280;63186;51.204;6.536;2023-05-24T11:20:49;101915.13;;;17.46;49.77
74659;BME280;63186;51.204;6.536;2023-05-24T11:23:15;101924.50;;;17.16;47.77
74659;BME280;63186;51.204;6.536;2023-05-24T11:25:41;101925.28;;;16.90;49.93
74659;BME280;63186;51.204;6.536;2023-05-24T11:28:09;101924.31;;;16.95;49.15
74659;BME280;63186;51.204;6.536;2023-05-24T11:30:39;101916.78;;;17.13;49.69
74659;BME280;63186;51.204;6.536;2023-05-24T11:33:15;101914.50;;;17.06;48.57
74659;BME280;63186;51.204;6.536;2023-05-24T11:35:42;101915.31;;;17.50;49.54
74659;BME280;63186;51.204;6.536;2023-05-24T11:38:12;101907.94;;;17.36;47.44
74659;BME280;63186;51.204;6.536;2023-05-24T11:40:45;101921.66;;;17.59;47.43
74659;BME280;63186;51.204;6.536;2023-05-24T11:43:11;101910.19;;;17.78;48.76
74659;BME280;63186;51.204;6.536;2023-05-24T11:45:40;101910.34;;;17.64;49.22
74659;BME280;63186;51.204;6.536;2023-05-24T11:48:06;101904.69;;;17.17;49.87
74659;BME280;63186;51.204;6.536;2023-05-24T11:50:36;101906.91;;;16.63;50.38
74659;BME280;63186;51.204;6.536;2023-05-24T11:53:02;101905.75;;;16.16;52.13
74659;BME280;63186;51.204;6.536;2023-05-24T11:55:28;101904.22;;;15.92;52.37
74659;BME280;63186;51.204;6.536;2023-05-24T11:57:57;101909.53;;;15.58;53.57
74659;BME280;63186;51.204;6.536;2023-05-24T12:00:24;101903.84;;;15.18;54.21
74659;BME280;63186;51.204;6.536;2023-05-24T12:02:50;101915.31;;;15.25;54.76
74659;BME280;63186;51.204;6.536;2023-05-24T12:05:17;101907.31;;;15.24;54.05
74659;BME280;63186;51.204;6.536;2023-05-24T12:07:43;101908.03;;;15.29;54.13
74659;BME280;63186;51.204;6.536;2023-05-24T12:10:15;101905.38;;;15.24;54.07
74659;BME280;63186;51.204;6.536;2023-05-24T12:12:43;101905.13;;;15.34;54.28
74659;BME280;63186;51.204;6.536;2023-05-24T12:15:09;101908.59;;;15.40;52.68
74659;BME280;63186;51.204;6.536;2023-05-24T12:17:34;101908.53;;;15.31;54.07
74659;BME280;63186;51.204;6.536;2023-05-24T12:20:01;101914.00;;;15.23;54.06
74659;BME280;63186;51.204;6.536;2023-05-24T12:22:28;101910.47;;;15.31;54.13
74659;BME280;63186;51.204;6.536;2023-05-24T12:24:56;101912.16;;;15.18;52.54
74659;BME280;63186;51.204;6.536;2023-05-24T12:27:29;101911.56;;;14.85;53.37
74659;BME280;63186;51.204;6.536;2023-05-24T12:29:55;101912.34;;;14.63;55.06
74659;BME280;63186;51.204;6.536;2023-05-24T12:32:20;101917.25;;;14.66;54.80
74659;BME280;63186;51.204;6.536;2023-05-24T12:34:48;101916.84;;;14.59;54.01
74659;BME280;63186;51.204;6.536;2023-05-24T12:37:13;101913.38;;;14.67;54.23
74659;BME280;63186;51.204;6.536;2023-05-24T12:39:39;101925.88;;;14.64;53.82
74659;BME280;63186;51.204;6.536;2023-05-24T12:42:06;101927.84;;;14.50;54.50
74659;BME280;63186;51.204;6.536;2023-05-24T12:44:34;101919.09;;;14.43;54.29
74659;BME280;63186;51.204;6.536;2023-05-24T12:47:01;101917.88;;;14.49;53.87
74659;BME280;63186;51.204;6.536;2023-05-24T12:49:26;101912.94;;;14.60;53.23
74659;BME280;63186;51.204;6.536;2023-05-24T12:51:53;101919.06;;;14.84;53.19
74659;BME280;63186;51.204;6.536;2023-05-24T12:54:22;101916.09;;;15.17;52.58
74659;BME280;63186;51.204;6.536;2023-05-24T12:56:48;101901.97;;;15.50;52.09
74659;BME280;63186;51.204;6.536;2023-05-24T12:59:14;101912.72;;;15.96;51.67
74659;BME280;63186;51.204;6.536;2023-05-24T13:01:39;101906.50;;;16.30;50.28
74659;BME280;63186;51.204;6.536;2023-05-24T13:04:04;101905.81;;;16.24;50.82
74659;BME280;63186;51.204;6.536;2023-05-24T13:06:30;101910.75;;;16.36;50.87
74659;BME280;63186;51.204;6.536;2023-05-24T13:08:55;101914.16;;;16.24;50.12